• Join FlightAware (Why Join?)
  • Login
  • US Flag 
03:06AM EDT


 

Airport Tracker/Info


-or-


 

Live Flight TrackerFlight Track Log ✈ EJA829P ✈ 10-Jul-2013 ✈ KART - KSBY

Flight Track Log - Related Links

Times and Time Zones

All times are in EDT time to prevent confusion due to time zone crossing. See the EJA829P flight status page for this flight to view local times or setup timezone preferences in your user account.

Time Position Orientation Groundspeed Altitude Reporting Facility
EDT Latitude Longitude Course Direction KTS MPH feet Rate Location/Type
01:01PM 43.9714 -76.0436 178° South 145 167 2,400  Level Boston Center
01:03PM 43.9194 -76.0406 178° South 179 206 7,100 3,240 Climbing Boston Center
01:04PM 43.8586 -76.0483 185° South 203 234 9,600 2,460 Climbing Boston Center
01:05PM 43.7600 -76.0711 189° South 265 305 12,800 2,700 Climbing Boston Center
01:06PM 43.6739 -76.0919 190° South 298 343 15,600 2,940 Climbing Boston Center
01:07PM 43.5856 -76.1122 189° South 320 368 18,700 3,000 Climbing Boston Center
01:08PM 43.5058 -76.1303 189° South 312 359 21,700 2,580 Climbing Boston Center
01:09PM 43.4197 -76.1508 190° South 312 359 23,900 1,140 Climbing Boston Center
01:10PM 43.3272 -76.1708 189° South 320 368 24,000  Climbing Boston Center
01:11PM 43.2350 -76.1908 189° South 338 389 24,000  Level Boston Center
01:12PM 43.1428 -76.2053 187° South 338 389 24,000  Level Boston Center
01:13PM 43.0511 -76.1994 177° South 333 383 24,000  Level Boston Center
01:14PM 42.9386 -76.1956 179° South 328 377 24,000 -660 Level Boston Center
01:16PM 42.7786 -76.1792 176° South 339 390 22,200 -720 Descending New York Center
01:17PM 42.6850 -76.1742 178° South 344 396 22,000 -120 Descending New York Center
01:18PM 42.5897 -76.1661 176° South 344 396 22,000  Level New York Center
01:19PM 42.4986 -76.1586 177° South 344 396 22,000  Level New York Center
01:20PM 42.4050 -76.1539 178° South 344 396 22,000  Level New York Center
01:21PM 42.3303 -76.1506 178° South 344 396 22,000  Level New York Center
01:22PM 42.2142 -76.1436 177° South 344 396 22,000  Level New York Center
01:23PM 42.1214 -76.1222 170° South 344 396 22,000  Level New York Center
01:24PM 42.0319 -76.0731 158° South 349 402 22,000  Level New York Center
01:25PM 41.9425 -76.0269 159° South 349 402 22,000  Level New York Center
01:26PM 41.8506 -75.9833 161° South 354 407 22,000  Level New York Center
01:27PM 41.7611 -75.9347 158° South 354 407 22,000  Level New York Center
01:28PM 41.6714 -75.8917 160° South 354 407 22,000  Level New York Center
01:29PM 41.5817 -75.8461 159° South 354 407 22,000  Level New York Center
01:30PM 41.4878 -75.8028 161° South 354 407 22,000  Level New York Center
01:31PM 41.3981 -75.7547 158° South 354 407 22,000  Level New York Center
01:32PM 41.3083 -75.7122 160° South 354 407 22,000  Level New York Center
01:33PM 41.2156 -75.6889 169° South 354 407 22,000  Level New York Center
01:34PM 41.1239 -75.6903 181° South 348 400 22,000  Level New York Center
01:35PM 41.0281 -75.6889 179° South 348 400 22,000  Level New York Center
01:36PM 40.9531 -75.6864 179° South 348 400 22,000  Level New York Center
01:37PM 40.8489 -75.6869 180° South 348 400 22,000  Level New York Center
01:38PM 40.7489 -75.6853 179° South 348 400 22,000  Level New York Center
01:39PM 40.6572 -75.6842 179° South 348 400 22,000 -720 Level New York Center
01:40PM 40.5556 -75.6769 177° South 354 407 20,600 -1,800 Descending New York Center
01:41PM 40.4467 -75.6392 165° South 370 426 18,400 -2,100 Descending New York Center
01:42PM 40.3500 -75.6050 165° South 370 426 16,500 -1,440 Descending New York Center
01:44PM 40.1364 -75.5914 177° South 336 387 13,900 -840 Descending Washington Center
01:45PM 40.0469 -75.6239 196° South 336 387 13,900  Level Washington Center
01:46PM 39.9572 -75.6592 197° South 342 394 13,900  Level Washington Center
01:47PM 39.8594 -75.6592 180° South 347 399 14,000  Climbing Washington Center
01:48PM 39.7636 -75.6294 167° South 347 399 14,000  Level Washington Center
01:49PM 39.6656 -75.6050 169° South 359 413 14,000  Level Washington Center
01:50PM 39.5719 -75.5861 171° South 359 413 14,000  Level Washington Center
01:51PM 39.4803 -75.5378 158° South 349 402 14,000 -60 Level Washington Center
01:52PM 39.3906 -75.4733 151° Southeast 359 413 13,900 -540 Descending Washington Center
01:53PM 39.2967 -75.4681 178° South 339 390 13,000 -1,200 Descending Washington Center
01:54PM 39.2050 -75.4764 184° South 333 383 11,600 -1,560 Descending Washington Center
01:55PM 39.1153 -75.4792 181° South 327 376 9,900 -1,860 Descending Washington Center
01:56PM 39.0425 -75.4794 180° South 297 342 7,900 -1,380 Descending Washington Center
01:57PM 38.9675 -75.4822 182° South 280 322 7,200 -1,020 Descending Washington Center
01:58PM 38.8944 -75.4875 183° South 270 311 6,000 -1,200 Descending Washington Center
01:59PM 38.8236 -75.4878 180° South 270 311 4,900 -1,080 Descending Washington Center
02:00PM 38.7528 -75.4800 175° South 264 304 3,900 -720 Descending Washington Center
02:01PM 38.7006 -75.4747 175° South 264 304 3,500 -600 Descending Washington Center
02:02PM 38.5922 -75.4669 177° South 257 296 2,600 -660 Descending Washington Center
02:03PM 38.5339 -75.4564 172° South 264 304 2,300 1,320 Descending Washington Center
02:04PM 38.4608 -75.4511 177° South 264 304 5,000 -420 Climbing Washington Center
02:05PM 38.3961 -75.4567 184° South 195 224 1,400 -3,000 Descending Washington Center